Time;durP1;ratioP1;P1;durP2;ratioP2;P2;SDS_P1;SDS_P2;PMS_P1;PMS_P2;Temp;Humidity;BMP_temperature;BMP_pressure;BME280_temperature;BME280_humidity;BME280_pressure;Samples;Min_cycle;Max_cycle;Signal;HPM_P1;HPM_P2
2022/07/17 00:00:16;;;;;;;2.63;0.20;;;13.20;99.90;;;;;;5007596;28;20127;-74
2022/07/17 00:02:42;;;;;;;1.00;0.17;;;13.10;99.90;;;;;;5024715;28;20112;-77
2022/07/17 00:05:08;;;;;;;1.75;0.20;;;13.10;99.90;;;;;;5020833;28;20049;-73
2022/07/17 00:07:34;;;;;;;1.27;0.20;;;13.10;99.90;;;;;;5018546;28;20531;-73
2022/07/17 00:10:00;;;;;;;2.15;0.20;;;13.10;99.90;;;;;;5014256;28;20120;-74
2022/07/17 00:12:26;;;;;;;1.73;0.20;;;13.00;99.90;;;;;;5033647;28;20048;-73
2022/07/17 00:14:52;;;;;;;0.77;0.20;;;13.00;99.90;;;;;;5022998;28;20026;-73
2022/07/17 00:17:17;;;;;;;0.98;0.28;;;13.10;99.90;;;;;;5007049;28;20384;-74
2022/07/17 00:19:43;;;;;;;0.68;0.10;;;13.00;99.90;;;;;;5012514;28;20432;-73
2022/07/17 00:22:09;;;;;;;0.85;0.10;;;12.90;99.90;;;;;;5024141;28;20064;-77
2022/07/17 00:24:34;;;;;;;1.65;0.20;;;12.80;99.90;;;;;;5030481;28;20037;-73
2022/07/17 00:27:00;;;;;;;1.40;0.10;;;12.80;99.90;;;;;;5038738;28;20037;-73
2022/07/17 00:29:26;;;;;;;1.52;0.20;;;12.80;99.90;;;;;;5023253;28;20084;-73
2022/07/17 00:31:52;;;;;;;0.60;0.10;;;12.90;99.90;;;;;;5029310;28;20037;-73
2022/07/17 00:34:17;;;;;;;0.90;0.20;;;12.80;99.90;;;;;;5023718;28;20048;-73
2022/07/17 00:36:43;;;;;;;1.00;0.20;;;12.80;99.90;;;;;;5023147;28;20069;-73
2022/07/17 00:39:09;;;;;;;1.05;0.20;;;12.80;99.90;;;;;;5022621;28;20057;-73
2022/07/17 00:41:35;;;;;;;1.10;0.20;;;12.70;99.90;;;;;;5023009;28;20025;-72
2022/07/17 00:44:09;;;;;;;0.85;0.20;;;12.60;99.90;;;;;;5023774;28;20029;-73
2022/07/17 00:46:35;;;;;;;1.48;0.20;;;12.60;99.90;;;;;;5039388;28;20509;-73
2022/07/17 00:49:02;;;;;;;0.70;0.10;;;12.50;99.90;;;;;;5023692;28;20432;-73
2022/07/17 00:51:28;;;;;;;0.90;0.20;;;12.40;99.90;;;;;;5004450;28;20785;-73
2022/07/17 00:53:55;;;;;;;1.80;0.20;;;12.40;99.90;;;;;;4995778;28;20033;-73
2022/07/17 00:56:22;;;;;;;1.05;0.17;;;12.40;99.90;;;;;;5016638;28;20036;-73
2022/07/17 00:58:49;;;;;;;1.80;0.10;;;12.40;99.90;;;;;;5024505;28;20026;-73
2022/07/17 01:01:15;;;;;;;0.95;0.10;;;12.40;99.90;;;;;;4995740;28;20071;-74
2022/07/17 01:03:41;;;;;;;1.52;0.10;;;12.40;99.90;;;;;;5022473;28;20025;-74
2022/07/17 01:06:07;;;;;;;1.85;0.20;;;12.40;99.90;;;;;;5020234;28;20025;-76
2022/07/17 01:08:34;;;;;;;0.95;0.20;;;12.40;99.90;;;;;;5021531;28;20105;-73
2022/07/17 01:11:00;;;;;;;2.38;0.30;;;12.40;99.90;;;;;;5019977;28;20041;-73
2022/07/17 01:13:26;;;;;;;1.38;0.20;;;12.30;99.90;;;;;;5021341;28;20037;-74
2022/07/17 01:15:53;;;;;;;1.10;0.20;;;12.20;99.90;;;;;;5019100;28;20029;-73
2022/07/17 01:18:19;;;;;;;1.00;0.20;;;12.20;99.90;;;;;;5002713;28;20281;-73
2022/07/17 01:20:47;;;;;;;1.20;0.40;;;12.10;99.90;;;;;;4998111;28;20512;-74
2022/07/17 01:23:15;;;;;;;0.90;0.20;;;12.10;99.90;;;;;;5020095;28;20029;-73
2022/07/17 01:25:41;;;;;;;1.13;0.10;;;12.00;99.90;;;;;;5017268;28;20436;-73
2022/07/17 01:28:08;;;;;;;1.48;0.20;;;12.00;99.90;;;;;;5013357;28;20139;-73
2022/07/17 01:30:34;;;;;;;1.35;0.25;;;12.00;99.90;;;;;;4996996;28;20041;-73
2022/07/17 01:33:00;;;;;;;1.38;0.30;;;11.90;99.90;;;;;;5017514;28;20048;-73
2022/07/17 01:35:26;;;;;;;1.25;0.20;;;11.90;99.90;;;;;;5004146;28;20157;-73
2022/07/17 01:37:52;;;;;;;1.70;0.30;;;11.90;99.90;;;;;;5002033;28;20148;-73
2022/07/17 01:40:18;;;;;;;1.35;0.30;;;11.80;99.90;;;;;;5002901;28;20033;-73
2022/07/17 01:42:49;;;;;;;2.38;0.73;;;11.80;99.90;;;;;;5020054;28;20147;-73
2022/07/17 01:45:17;;;;;;;1.02;0.20;;;11.80;99.90;;;;;;5014324;28;20029;-73
2022/07/17 01:47:43;;;;;;;0.98;0.20;;;11.70;99.90;;;;;;5018690;28;20083;-73
2022/07/17 01:50:10;;;;;;;2.05;0.30;;;11.70;99.90;;;;;;5019277;28;20513;-72
2022/07/17 01:52:38;;;;;;;0.93;0.20;;;11.70;99.90;;;;;;5020198;28;20041;-72
2022/07/17 01:55:06;;;;;;;0.73;0.22;;;11.60;99.90;;;;;;5019031;28;20040;-73
2022/07/17 01:57:32;;;;;;;1.85;0.25;;;11.70;99.90;;;;;;5020063;28;20044;-73
2022/07/17 01:59:58;;;;;;;0.60;0.20;;;11.50;99.90;;;;;;5017620;28;20033;-73
2022/07/17 02:02:24;;;;;;;1.00;0.20;;;11.50;99.90;;;;;;5004331;28;20030;-73
2022/07/17 02:04:49;;;;;;;1.48;0.20;;;11.50;99.90;;;;;;5019313;28;20033;-73
2022/07/17 02:07:15;;;;;;;1.95;0.17;;;11.40;99.90;;;;;;5028563;28;20036;-73
2022/07/17 02:09:41;;;;;;;2.08;0.20;;;11.40;99.90;;;;;;5019998;28;20026;-73
2022/07/17 02:12:07;;;;;;;1.02;0.20;;;11.30;99.90;;;;;;5002376;28;20041;-73
2022/07/17 02:14:32;;;;;;;1.35;0.20;;;11.30;99.90;;;;;;5017550;28;20044;-73
2022/07/17 02:16:58;;;;;;;0.80;0.30;;;11.30;99.90;;;;;;4996336;28;20048;-72
2022/07/17 02:19:24;;;;;;;1.85;0.45;;;11.30;99.90;;;;;;4996782;28;20127;-73
2022/07/17 02:21:50;;;;;;;0.80;0.20;;;11.30;99.90;;;;;;5001295;28;20033;-73
2022/07/17 02:24:15;;;;;;;1.05;0.25;;;11.30;99.90;;;;;;5020402;28;20048;-73
2022/07/17 02:26:41;;;;;;;1.02;0.20;;;11.20;99.90;;;;;;5019475;28;20033;-73
2022/07/17 02:29:07;;;;;;;0.75;0.25;;;11.20;99.90;;;;;;5017539;28;20091;-72
2022/07/17 02:31:32;;;;;;;0.73;0.20;;;11.20;99.90;;;;;;5019241;28;20044;-73
2022/07/17 02:33:58;;;;;;;1.40;0.20;;;11.20;99.90;;;;;;5011369;28;20125;-73
2022/07/17 02:36:24;;;;;;;1.30;0.30;;;11.10;99.90;;;;;;5019422;28;20057;-73
2022/07/17 02:38:50;;;;;;;1.25;0.30;;;11.10;99.90;;;;;;5016989;28;20057;-72
2022/07/17 02:41:16;;;;;;;0.90;0.40;;;11.10;99.90;;;;;;5019884;28;20111;-72
2022/07/17 02:43:42;;;;;;;1.48;0.20;;;11.10;99.90;;;;;;5011002;28;20390;-72
2022/07/17 02:46:08;;;;;;;0.90;0.30;;;11.10;99.90;;;;;;5001256;28;20048;-73
2022/07/17 02:48:33;;;;;;;1.55;0.40;;;11.00;99.90;;;;;;5002804;28;20025;-72
2022/07/17 02:50:59;;;;;;;0.57;0.30;;;11.00;99.90;;;;;;5017903;28;20040;-75
2022/07/17 02:53:25;;;;;;;1.00;0.30;;;11.00;99.90;;;;;;5017707;28;20049;-73
2022/07/17 02:55:51;;;;;;;0.60;0.20;;;11.00;99.90;;;;;;5011091;28;20036;-73
2022/07/17 02:58:16;;;;;;;1.30;0.20;;;11.00;99.90;;;;;;5016967;28;21823;-72
2022/07/17 03:00:42;;;;;;;1.13;0.30;;;11.00;99.90;;;;;;5018886;28;20029;-74
2022/07/17 03:03:08;;;;;;;3.22;0.60;;;11.00;99.90;;;;;;5017332;28;20025;-74
2022/07/17 03:05:33;;;;;;;0.88;0.30;;;11.10;99.90;;;;;;4996568;28;20041;-73
2022/07/17 03:07:59;;;;;;;1.92;0.40;;;11.10;99.90;;;;;;5018433;28;20463;-73
2022/07/17 03:10:25;;;;;;;1.88;0.32;;;11.10;99.90;;;;;;5024570;28;20138;-73
2022/07/17 03:12:50;;;;;;;2.47;0.50;;;11.10;99.90;;;;;;5017688;28;20118;-73
2022/07/17 03:15:16;;;;;;;1.40;0.30;;;11.10;99.90;;;;;;5019264;28;20021;-73
2022/07/17 03:17:42;;;;;;;1.63;0.30;;;11.10;99.90;;;;;;5018439;28;20053;-73
2022/07/17 03:20:09;;;;;;;1.55;0.32;;;11.10;99.90;;;;;;5018043;28;20029;-73
2022/07/17 03:22:35;;;;;;;2.75;0.30;;;11.10;99.90;;;;;;5018566;28;20053;-73
2022/07/17 03:25:01;;;;;;;0.68;0.30;;;11.10;99.90;;;;;;5011360;28;20444;-74
2022/07/17 03:27:27;;;;;;;1.65;0.30;;;11.00;99.90;;;;;;5016143;28;20038;-73
2022/07/17 03:29:54;;;;;;;1.00;0.30;;;11.00;99.90;;;;;;5017892;28;20037;-73
2022/07/17 03:32:20;;;;;;;1.77;0.40;;;11.00;99.90;;;;;;5010985;28;20139;-73
2022/07/17 03:34:46;;;;;;;2.28;0.35;;;10.90;99.90;;;;;;5016798;28;20104;-73
2022/07/17 03:37:11;;;;;;;1.60;0.30;;;10.90;99.90;;;;;;5024194;28;20156;-73
2022/07/17 03:39:37;;;;;;;1.52;0.30;;;10.90;99.90;;;;;;5001219;28;20045;-73
2022/07/17 03:42:03;;;;;;;1.95;0.30;;;10.80;99.90;;;;;;5009898;28;20080;-74
2022/07/17 03:44:28;;;;;;;0.80;0.30;;;10.80;99.90;;;;;;5018219;28;20089;-73
2022/07/17 03:46:54;;;;;;;0.80;0.30;;;10.80;99.90;;;;;;5016747;28;20100;-73
2022/07/17 03:49:20;;;;;;;1.02;0.30;;;10.70;99.90;;;;;;5018205;28;20021;-72
2022/07/17 03:51:46;;;;;;;0.95;0.30;;;10.70;99.90;;;;;;5001825;28;20541;-73
2022/07/17 03:54:11;;;;;;;1.02;0.30;;;10.70;99.90;;;;;;5016106;28;20036;-73
2022/07/17 03:56:37;;;;;;;0.93;0.30;;;10.80;99.90;;;;;;5000450;28;20125;-73
2022/07/17 03:59:02;;;;;;;2.22;0.40;;;10.90;99.90;;;;;;5009176;28;20044;-73
2022/07/17 04:01:28;;;;;;;1.48;0.32;;;10.90;99.90;;;;;;5007218;28;20115;-72
2022/07/17 04:03:54;;;;;;;1.25;0.30;;;10.90;99.90;;;;;;5023620;28;20092;-73
2022/07/17 04:06:19;;;;;;;1.50;0.30;;;10.90;99.90;;;;;;5018821;28;20037;-74
2022/07/17 04:08:45;;;;;;;1.70;0.50;;;11.00;99.90;;;;;;5018534;28;20044;-73
2022/07/17 04:11:11;;;;;;;1.13;0.20;;;11.00;99.90;;;;;;5016765;28;20056;-73
2022/07/17 04:13:37;;;;;;;1.05;0.40;;;11.00;99.90;;;;;;5010903;28;20041;-73
2022/07/17 04:16:03;;;;;;;1.15;0.30;;;11.10;99.90;;;;;;5018103;28;20029;-73
2022/07/17 04:18:31;;;;;;;2.40;0.30;;;11.10;99.90;;;;;;5017195;28;20033;-73
2022/07/17 04:21:02;;;;;;;1.98;0.30;;;11.00;99.90;;;;;;5010016;28;22329;-73
2022/07/17 04:23:29;;;;;;;1.52;0.30;;;11.00;99.90;;;;;;5010082;28;20057;-73
2022/07/17 04:25:54;;;;;;;0.98;0.30;;;10.90;99.90;;;;;;5015392;28;20047;-73
2022/07/17 04:28:20;;;;;;;1.33;0.40;;;10.80;99.90;;;;;;5000465;28;20448;-73
2022/07/17 04:30:46;;;;;;;3.38;0.50;;;10.90;99.90;;;;;;5016230;28;20037;-73
2022/07/17 04:33:12;;;;;;;3.42;0.50;;;10.90;99.90;;;;;;5000273;28;20026;-73
2022/07/17 04:35:39;;;;;;;1.90;0.50;;;11.00;99.90;;;;;;5002176;28;20033;-73
2022/07/17 04:38:05;;;;;;;2.92;0.47;;;11.10;99.90;;;;;;5017321;28;20051;-73
2022/07/17 04:40:32;;;;;;;2.05;0.50;;;11.10;99.90;;;;;;5013833;28;20049;-73
2022/07/17 04:42:58;;;;;;;1.52;0.50;;;11.20;99.90;;;;;;5014167;28;20080;-73
2022/07/17 04:45:24;;;;;;;2.05;0.75;;;11.40;99.90;;;;;;5019384;28;20186;-73
2022/07/17 04:47:50;;;;;;;2.78;0.65;;;11.50;99.90;;;;;;5013508;28;20038;-73
2022/07/17 04:50:16;;;;;;;2.70;0.50;;;11.50;99.90;;;;;;5003008;28;20036;-73
2022/07/17 04:52:41;;;;;;;1.90;0.30;;;11.60;99.90;;;;;;5019138;28;20477;-73
2022/07/17 04:55:07;;;;;;;5.95;0.60;;;11.70;99.90;;;;;;5000601;28;20215;-73
2022/07/17 04:57:33;;;;;;;1.80;0.47;;;11.90;99.90;;;;;;5020990;28;20024;-73
2022/07/17 04:59:58;;;;;;;3.72;0.60;;;12.20;99.90;;;;;;5013458;28;20382;-73
2022/07/17 05:02:24;;;;;;;1.45;0.30;;;12.40;99.90;;;;;;5020105;28;20512;-76
2022/07/17 05:04:50;;;;;;;1.20;0.25;;;12.60;99.90;;;;;;5028897;28;20060;-74
2022/07/17 05:07:16;;;;;;;3.20;0.40;;;12.70;99.90;;;;;;5020967;28;20116;-73
2022/07/17 05:09:41;;;;;;;1.75;0.30;;;12.90;99.90;;;;;;5019653;28;20035;-74
2022/07/17 05:12:08;;;;;;;3.28;0.30;;;13.00;99.90;;;;;;5018356;28;20506;-73
2022/07/17 05:14:34;;;;;;;3.08;0.38;;;13.20;99.90;;;;;;5020042;28;20033;-73
2022/07/17 05:17:00;;;;;;;1.13;0.38;;;13.30;99.90;;;;;;5001673;28;20025;-74
2022/07/17 05:19:26;;;;;;;2.17;0.32;;;13.40;99.90;;;;;;5020514;28;20470;-73
2022/07/17 05:21:51;;;;;;;1.65;0.20;;;13.40;99.90;;;;;;5001981;28;20466;-74
2022/07/17 05:24:17;;;;;;;1.98;0.52;;;13.60;99.90;;;;;;5018109;28;20056;-73
2022/07/17 05:26:43;;;;;;;1.42;0.30;;;13.50;99.90;;;;;;5002409;28;20025;-73
2022/07/17 05:29:08;;;;;;;1.27;0.40;;;13.30;99.90;;;;;;5012450;28;20069;-74
2022/07/17 05:31:34;;;;;;;1.30;0.40;;;13.20;99.90;;;;;;5018392;28;20046;-73
2022/07/17 05:34:00;;;;;;;2.65;0.30;;;13.10;99.90;;;;;;5020541;28;20037;-73
2022/07/17 05:36:26;;;;;;;2.95;0.40;;;13.20;99.90;;;;;;5020029;28;20033;-74
2022/07/17 05:38:51;;;;;;;1.33;0.38;;;13.30;99.90;;;;;;5017690;28;20092;-74
2022/07/17 05:41:17;;;;;;;2.03;0.30;;;13.40;99.90;;;;;;5002540;28;20094;-74
2022/07/17 05:43:44;;;;;;;2.15;0.40;;;13.60;99.90;;;;;;5016954;28;20056;-75
2022/07/17 05:46:10;;;;;;;1.60;0.30;;;13.70;99.90;;;;;;5028345;28;20026;-74
2022/07/17 05:48:35;;;;;;;1.17;0.30;;;13.90;99.90;;;;;;5020033;28;20036;-74
2022/07/17 05:51:01;;;;;;;0.98;0.30;;;14.10;99.90;;;;;;5018586;28;20033;-73
2022/07/17 05:53:27;;;;;;;2.60;0.30;;;14.20;99.90;;;;;;5019107;28;20073;-74
2022/07/17 05:55:52;;;;;;;4.00;0.30;;;14.40;99.90;;;;;;4996045;28;20029;-77
2022/07/17 05:58:18;;;;;;;2.85;0.40;;;14.40;99.90;;;;;;5017608;28;20037;-74
2022/07/17 06:00:45;;;;;;;0.82;0.32;;;14.60;99.90;;;;;;5019883;28;20700;-74
2022/07/17 06:03:10;;;;;;;3.17;0.40;;;14.80;99.90;;;;;;5019525;28;20063;-75
2022/07/17 06:05:36;;;;;;;1.17;0.30;;;14.90;99.90;;;;;;5019966;28;20052;-75
2022/07/17 06:08:03;;;;;;;1.95;0.28;;;15.20;99.90;;;;;;5018993;28;20128;-78
2022/07/17 06:10:29;;;;;;;1.77;0.30;;;15.50;99.90;;;;;;5018964;28;20034;-74
2022/07/17 06:12:54;;;;;;;1.00;0.30;;;15.60;99.90;;;;;;5019254;28;20045;-74
2022/07/17 06:15:21;;;;;;;2.58;0.50;;;15.70;99.90;;;;;;5019183;28;20610;-74
2022/07/17 06:17:47;;;;;;;2.08;0.30;;;15.80;99.90;;;;;;5019543;28;20060;-79
2022/07/17 06:20:14;;;;;;;4.95;0.38;;;16.10;99.90;;;;;;5020354;28;20048;-75
2022/07/17 06:22:40;;;;;;;3.08;0.30;;;16.30;99.90;;;;;;5034536;28;20075;-74
2022/07/17 06:25:07;;;;;;;2.72;0.55;;;16.60;99.90;;;;;;5011700;28;20081;-75
2022/07/17 06:27:33;;;;;;;2.28;0.30;;;16.80;99.90;;;;;;5017337;28;20030;-74
2022/07/17 06:29:59;;;;;;;1.98;0.30;;;16.60;99.90;;;;;;5018951;28;20037;-80
2022/07/17 06:32:25;;;;;;;1.80;0.30;;;16.60;99.90;;;;;;5027823;28;20049;-75
2022/07/17 06:34:50;;;;;;;2.13;0.30;;;16.80;99.90;;;;;;5019503;28;20164;-76
2022/07/17 06:37:16;;;;;;;1.00;0.20;;;16.80;99.90;;;;;;5000781;28;20038;-75
2022/07/17 06:39:42;;;;;;;2.15;0.30;;;17.00;99.90;;;;;;5018623;28;20124;-75
2022/07/17 06:42:07;;;;;;;1.67;0.30;;;17.40;99.90;;;;;;5001386;28;20074;-74
2022/07/17 06:44:34;;;;;;;0.98;0.20;;;17.40;99.90;;;;;;5017712;28;20582;-75
2022/07/17 06:46:59;;;;;;;1.05;0.20;;;17.50;99.90;;;;;;5016700;28;20033;-76
2022/07/17 06:49:25;;;;;;;1.70;0.20;;;17.80;99.90;;;;;;4999916;28;20032;-76
2022/07/17 06:51:51;;;;;;;2.83;0.30;;;18.00;99.90;;;;;;5016759;28;20220;-76
2022/07/17 06:54:16;;;;;;;1.98;0.30;;;18.10;99.90;;;;;;5023302;28;20071;-76
2022/07/17 06:56:42;;;;;;;1.98;0.30;;;18.20;99.90;;;;;;5002260;28;20026;-75
2022/07/17 06:59:08;;;;;;;1.83;0.30;;;18.30;99.90;;;;;;5000625;28;20519;-75
2022/07/17 07:01:35;;;;;;;2.78;0.22;;;18.30;99.90;;;;;;5017207;28;20038;-75
2022/07/17 07:04:00;;;;;;;2.15;0.20;;;18.40;99.90;;;;;;5016658;28;20041;-77
2022/07/17 07:06:26;;;;;;;2.38;0.22;;;18.80;99.90;;;;;;5017717;28;20030;-76
2022/07/17 07:08:52;;;;;;;1.98;0.25;;;19.00;99.90;;;;;;5014984;28;20245;-76
2022/07/17 07:11:17;;;;;;;1.80;0.30;;;18.80;99.90;;;;;;5016306;28;20033;-75
2022/07/17 07:13:43;;;;;;;1.90;0.20;;;19.20;99.90;;;;;;5002556;28;20160;-75
2022/07/17 07:16:08;;;;;;;1.40;0.20;;;19.60;99.90;;;;;;5017071;28;20492;-75
2022/07/17 07:18:34;;;;;;;1.73;0.30;;;19.30;99.90;;;;;;5011183;28;20037;-76
2022/07/17 07:21:00;;;;;;;2.83;0.30;;;18.90;99.90;;;;;;5022605;28;21810;-75
2022/07/17 07:23:25;;;;;;;1.35;0.20;;;19.40;99.90;;;;;;5023341;28;20034;-75
2022/07/17 07:25:51;;;;;;;1.73;0.22;;;19.80;99.90;;;;;;5033692;28;20437;-75
2022/07/17 07:28:17;;;;;;;1.20;0.20;;;20.00;99.90;;;;;;5010820;28;20222;-76
2022/07/17 07:30:42;;;;;;;1.15;0.15;;;20.20;99.90;;;;;;5014540;28;20034;-75
2022/07/17 07:33:08;;;;;;;2.67;0.20;;;19.80;99.90;;;;;;5016725;28;20033;-76
2022/07/17 07:35:34;;;;;;;1.15;0.20;;;19.60;99.90;;;;;;4999791;28;20481;-76
2022/07/17 07:37:59;;;;;;;1.67;0.20;;;20.40;99.90;;;;;;5016854;28;20053;-74
2022/07/17 07:40:25;;;;;;;2.00;0.10;;;20.50;99.90;;;;;;4995914;28;20064;-75
2022/07/17 07:42:50;;;;;;;2.10;0.20;;;20.80;99.90;;;;;;4999542;28;20025;-76
2022/07/17 07:45:16;;;;;;;1.35;0.10;;;20.50;99.90;;;;;;5016673;28;20040;-75
2022/07/17 07:47:47;;;;;;;0.98;0.10;;;20.70;99.90;;;;;;5017513;28;20056;-75
2022/07/17 07:50:13;;;;;;;2.60;0.20;;;20.60;99.90;;;;;;5017892;28;20041;-75
2022/07/17 07:52:39;;;;;;;3.28;0.20;;;20.20;99.90;;;;;;4999671;28;20133;-77
2022/07/17 07:55:06;;;;;;;1.70;0.20;;;20.30;99.90;;;;;;5017478;28;20419;-75
2022/07/17 07:57:31;;;;;;;3.83;0.10;;;19.70;99.90;;;;;;4989840;28;20049;-75
2022/07/17 07:59:57;;;;;;;2.25;0.20;;;20.60;99.90;;;;;;5016198;28;20109;-74
2022/07/17 08:02:23;;;;;;;1.00;0.15;;;20.40;99.90;;;;;;5000879;28;20136;-75
2022/07/17 08:04:48;;;;;;;1.45;0.10;;;20.90;99.90;;;;;;5017395;28;20045;-76
2022/07/17 08:07:14;;;;;;;0.52;0.10;;;20.30;99.90;;;;;;5011025;28;20095;-75
2022/07/17 08:09:40;;;;;;;0.70;0.15;;;20.80;99.90;;;;;;5022657;28;20515;-75
2022/07/17 08:12:05;;;;;;;1.63;0.10;;;21.00;99.90;;;;;;5016124;28;21973;-75
2022/07/17 08:14:31;;;;;;;1.88;0.20;;;21.50;99.90;;;;;;5019257;28;20171;-76
2022/07/17 08:16:57;;;;;;;1.13;0.10;;;21.60;99.90;;;;;;5013429;28;20047;-76
2022/07/17 08:19:22;;;;;;;1.35;0.10;;;21.60;99.90;;;;;;5013408;28;20050;-75
2022/07/17 08:21:48;;;;;;;5.38;0.25;;;21.20;99.90;;;;;;5013313;28;20128;-75
2022/07/17 08:24:14;;;;;;;1.70;0.20;;;21.00;99.90;;;;;;5018782;28;20037;-75
2022/07/17 08:26:39;;;;;;;1.80;0.17;;;20.50;99.90;;;;;;5003327;28;20029;-76
2022/07/17 08:29:05;;;;;;;1.08;0.10;;;21.20;99.90;;;;;;5019697;28;20022;-76
2022/07/17 08:31:31;;;;;;;2.45;0.20;;;21.80;99.90;;;;;;5008607;28;20474;-75
2022/07/17 08:33:56;;;;;;;3.08;0.30;;;21.30;99.90;;;;;;5019415;28;20041;-75
2022/07/17 08:36:22;;;;;;;3.58;0.20;;;21.20;99.90;;;;;;5013299;28;20287;-77
2022/07/17 08:38:48;;;;;;;2.13;0.20;;;20.90;99.90;;;;;;5019126;28;20045;-75
2022/07/17 08:41:21;;;;;;;1.13;0.28;;;21.50;99.90;;;;;;5003063;28;20149;-75
2022/07/17 08:43:48;;;;;;;2.20;0.10;;;21.70;99.90;;;;;;5011703;28;20025;-76
2022/07/17 08:46:14;;;;;;;0.70;0.10;;;21.90;99.90;;;;;;5020458;28;21753;-75
2022/07/17 08:48:44;;;;;;;1.50;0.10;;;21.60;99.90;;;;;;5018818;28;20048;-75
2022/07/17 08:51:11;;;;;;;2.00;0.10;;;21.30;99.90;;;;;;5012248;28;21747;-76
2022/07/17 08:53:37;;;;;;;0.95;0.10;;;21.80;99.90;;;;;;5018877;28;20405;-76
2022/07/17 08:56:03;;;;;;;1.60;0.17;;;22.40;99.90;;;;;;5019281;28;20033;-77
2022/07/17 08:58:29;;;;;;;1.17;0.10;;;21.50;99.90;;;;;;5021248;28;20163;-75
2022/07/17 09:00:55;;;;;;;2.45;0.20;;;21.60;99.90;;;;;;5019467;28;20108;-76
2022/07/17 09:03:23;;;;;;;2.33;0.30;;;21.40;99.90;;;;;;5013338;28;20041;-75
2022/07/17 09:05:49;;;;;;;2.40;0.20;;;21.20;99.90;;;;;;5013687;28;20029;-75
2022/07/17 09:08:23;;;;;;;1.55;0.15;;;22.00;99.90;;;;;;5004200;28;20124;-76
2022/07/17 09:10:51;;;;;;;1.98;0.20;;;22.40;99.90;;;;;;5020584;28;20038;-75
2022/07/17 09:13:24;;;;;;;1.27;0.20;;;23.10;99.90;;;;;;4998155;28;20049;-76
2022/07/17 09:15:51;;;;;;;1.15;0.17;;;23.10;99.90;;;;;;5018570;28;20026;-76
2022/07/17 09:18:18;;;;;;;1.15;0.10;;;22.40;99.90;;;;;;5013998;28;20612;-76
2022/07/17 09:20:55;;;;;;;2.85;0.50;;;22.20;99.90;;;;;;5013830;28;20401;-75
2022/07/17 09:23:24;;;;;;;3.10;0.20;;;21.50;99.90;;;;;;5019298;28;20029;-75
2022/07/17 09:25:52;;;;;;;1.75;0.20;;;22.10;99.90;;;;;;5017493;28;20068;-76
2022/07/17 09:28:20;;;;;;;0.90;0.10;;;21.90;99.90;;;;;;5011754;28;20397;-75
2022/07/17 09:30:54;;;;;;;1.52;0.20;;;21.60;99.90;;;;;;4996626;28;20036;-76
2022/07/17 09:33:27;;;;;;;1.48;0.15;;;22.10;99.90;;;;;;5018793;28;20063;-75
2022/07/17 09:36:07;;;;;;;2.20;0.20;;;22.60;99.90;;;;;;5020525;28;20030;-75
2022/07/17 09:38:36;;;;;;;1.80;0.10;;;21.90;99.90;;;;;;5003606;28;20057;-75
2022/07/17 09:41:11;;;;;;;1.75;0.10;;;22.00;99.90;;;;;;5034904;28;20029;-75
2022/07/17 09:43:50;;;;;;;1.13;0.20;;;21.70;99.90;;;;;;5012254;28;20095;-75
2022/07/17 09:46:22;;;;;;;0.77;0.10;;;21.80;99.90;;;;;;5019585;28;20041;-75
2022/07/17 09:48:56;;;;;;;3.03;0.20;;;22.20;99.90;;;;;;5019150;28;20367;-75
2022/07/17 09:51:31;;;;;;;3.22;0.20;;;22.40;99.90;;;;;;5019766;28;20084;-76
2022/07/17 09:53:59;;;;;;;1.77;0.20;;;22.60;99.90;;;;;;5019760;28;20037;-75
2022/07/17 09:56:26;;;;;;;1.38;0.10;;;23.00;99.90;;;;;;5017031;28;20128;-75
2022/07/17 09:59:00;;;;;;;0.95;0.10;;;23.10;99.90;;;;;;5017736;28;20037;-76
2022/07/17 10:01:26;;;;;;;1.23;0.10;;;23.30;99.90;;;;;;5019372;28;20036;-74
2022/07/17 10:03:53;;;;;;;2.30;0.20;;;22.90;99.90;;;;;;5017867;28;20060;-76
2022/07/17 10:06:20;;;;;;;2.97;0.20;;;22.80;99.90;;;;;;5018371;28;20033;-75
2022/07/17 10:08:46;;;;;;;1.92;0.20;;;23.00;99.90;;;;;;4998036;28;20053;-75
2022/07/17 10:11:15;;;;;;;0.73;0.20;;;23.00;99.90;;;;;;5017966;28;20081;-75
2022/07/17 10:13:45;;;;;;;1.83;0.30;;;23.10;99.90;;;;;;5011047;28;20037;-75
2022/07/17 10:16:11;;;;;;;1.23;0.17;;;22.50;99.90;;;;;;5018959;28;20473;-74
2022/07/17 10:18:42;;;;;;;1.70;0.10;;;22.20;99.90;;;;;;5017109;28;20536;-75
2022/07/17 10:21:18;;;;;;;1.27;0.20;;;22.70;99.90;;;;;;5018325;28;20053;-75
2022/07/17 10:23:53;;;;;;;0.57;0.10;;;23.30;99.90;;;;;;4995973;28;20405;-75
2022/07/17 10:26:43;;;;;;;1.65;0.17;;;24.00;99.90;;;;;;5017893;28;21491;-76
2022/07/17 10:29:30;;;;;;;2.45;0.32;;;23.00;99.90;;;;;;5010357;28;20037;-75
2022/07/17 10:31:57;;;;;;;1.23;0.13;;;22.80;99.90;;;;;;5003884;28;20048;-75
2022/07/17 10:34:43;;;;;;;1.00;0.15;;;22.90;99.90;;;;;;5010282;28;20059;-75
2022/07/17 10:37:26;;;;;;;0.70;0.10;;;23.30;99.90;;;;;;5015606;28;20033;-75
2022/07/17 10:40:25;;;;;;;1.40;0.28;;;23.10;99.90;;;;;;5007764;28;20083;-74
2022/07/17 10:43:02;;;;;;;0.93;0.10;;;23.50;99.90;;;;;;5010609;28;22049;-75
2022/07/17 10:45:32;;;;;;;1.50;0.10;;;23.20;99.90;;;;;;5014953;28;20048;-75
2022/07/17 10:48:03;;;;;;;1.42;0.10;;;23.60;99.90;;;;;;5015223;28;21538;-75
2022/07/17 10:50:39;;;;;;;2.78;0.10;;;24.00;99.90;;;;;;5012709;28;20546;-75
2022/07/17 10:53:10;;;;;;;1.10;0.10;;;24.10;99.90;;;;;;5000482;28;20087;-75
2022/07/17 10:55:41;;;;;;;0.95;0.10;;;24.30;99.90;;;;;;5018067;28;20025;-75
2022/07/17 10:58:19;;;;;;;0.60;0.10;;;24.90;99.90;;;;;;5033546;28;20082;-75
2022/07/17 11:01:10;;;;;;;0.43;0.08;;;24.50;99.90;;;;;;5017688;28;20040;-75
2022/07/17 11:03:56;;;;;;;1.30;0.10;;;24.20;99.90;;;;;;5012973;28;20025;-75
2022/07/17 11:06:27;;;;;;;0.65;0.10;;;24.60;99.90;;;;;;5022230;28;20760;-77
2022/07/17 11:08:53;;;;;;;0.93;0.10;;;24.90;99.90;;;;;;5005358;28;20521;-75
2022/07/17 11:11:20;;;;;;;1.13;0.10;;;25.30;99.90;;;;;;5019973;28;20132;-75
2022/07/17 11:13:47;;;;;;;1.25;0.10;;;25.10;99.90;;;;;;5016874;28;20037;-75
2022/07/17 11:16:32;;;;;;;0.60;0.10;;;24.70;99.90;;;;;;5011907;28;20025;-73
2022/07/17 11:18:58;;;;;;;1.40;0.10;;;24.40;99.90;;;;;;5016799;28;20041;-74
2022/07/17 11:21:24;;;;;;;0.90;0.10;;;25.10;99.90;;;;;;5015669;28;20040;-75
2022/07/17 11:23:55;;;;;;;0.63;0.00;;;25.70;99.90;;;;;;4999004;28;20064;-74
2022/07/17 11:26:21;;;;;;;1.20;0.10;;;25.90;99.90;;;;;;5013742;28;20063;-74
2022/07/17 11:28:49;;;;;;;0.35;0.00;;;25.20;99.90;;;;;;5007051;28;20048;-74
2022/07/17 11:31:20;;;;;;;0.30;0.00;;;25.90;99.90;;;;;;4987939;28;20133;-74
2022/07/17 11:33:48;;;;;;;0.57;0.10;;;26.00;99.90;;;;;;5016769;28;20472;-78
2022/07/17 11:36:39;;;;;;;1.33;0.20;;;26.40;99.90;;;;;;5009476;28;20067;-74
2022/07/17 11:39:10;;;;;;;1.75;0.10;;;25.20;99.90;;;;;;4995018;28;20060;-74
2022/07/17 11:41:43;;;;;;;0.55;0.10;;;25.00;99.90;;;;;;5018997;28;20045;-74
2022/07/17 11:44:30;;;;;;;0.60;0.00;;;25.50;99.90;;;;;;5015213;28;20120;-76
2022/07/17 11:46:56;;;;;;;1.05;0.10;;;24.90;99.90;;;;;;5016830;28;20047;-74
2022/07/17 11:49:31;;;;;;;1.40;0.10;;;25.00;99.90;;;;;;5006583;28;20553;-74
2022/07/17 11:51:59;;;;;;;0.50;0.10;;;25.50;99.90;;;;;;5015431;28;20050;-74
2022/07/17 11:54:26;;;;;;;1.10;0.10;;;25.50;99.90;;;;;;5016722;28;20029;-74
2022/07/17 11:56:54;;;;;;;0.50;0.00;;;25.70;99.90;;;;;;5016166;28;20142;-77
2022/07/17 11:59:28;;;;;;;1.88;0.20;;;26.00;99.90;;;;;;5015626;28;20033;-77
2022/07/17 12:01:54;;;;;;;1.00;0.10;;;24.90;99.90;;;;;;5014112;28;20042;-75
2022/07/17 12:04:20;;;;;;;0.40;0.03;;;25.30;99.90;;;;;;5016114;28;20029;-74
2022/07/17 12:06:57;;;;;;;0.55;0.00;;;25.20;99.10;;;;;;5015233;28;20485;-74
2022/07/17 12:09:36;;;;;;;0.90;0.00;;;25.10;99.80;;;;;;4998006;28;20029;-74
2022/07/17 12:12:03;;;;;;;1.27;0.10;;;25.20;99.90;;;;;;5013308;28;20042;-74
2022/07/17 12:14:29;;;;;;;0.30;0.00;;;25.60;99.90;;;;;;5015905;28;20033;-74
2022/07/17 12:17:03;;;;;;;0.30;0.00;;;25.30;98.60;;;;;;5014357;28;20556;-74
2022/07/17 12:19:29;;;;;;;1.58;0.13;;;25.40;98.70;;;;;;5014468;28;20476;-74
2022/07/17 12:22:00;;;;;;;0.65;0.10;;;25.40;98.10;;;;;;5024099;28;20117;-74
2022/07/17 12:24:38;;;;;;;1.30;0.10;;;25.10;99.30;;;;;;5014690;28;20029;-76
2022/07/17 12:27:06;;;;;;;0.50;0.03;;;24.90;99.40;;;;;;4992167;28;20129;-76
2022/07/17 12:29:32;;;;;;;0.85;0.10;;;25.70;99.00;;;;;;5013315;28;20029;-74
2022/07/17 12:32:12;;;;;;;0.60;0.10;;;25.50;99.90;;;;;;4997042;28;20033;-74
2022/07/17 12:34:47;;;;;;;0.50;0.00;;;25.90;99.90;;;;;;5016289;28;20537;-74
2022/07/17 12:37:17;;;;;;;1.42;0.10;;;26.60;99.90;;;;;;5014760;28;20033;-74
2022/07/17 12:39:49;;;;;;;0.93;0.10;;;25.40;99.70;;;;;;5016202;28;20172;-74
2022/07/17 12:42:16;;;;;;;0.93;0.15;;;25.60;99.90;;;;;;5015061;28;20065;-75
2022/07/17 12:44:45;;;;;;;2.53;0.25;;;25.60;99.80;;;;;;5015804;28;20057;-74
2022/07/17 12:47:11;;;;;;;1.15;0.10;;;25.10;99.80;;;;;;5015742;28;20040;-75
2022/07/17 12:49:37;;;;;;;0.77;0.10;;;24.90;99.90;;;;;;5010329;28;20033;-75